createdAt,value
2023-12-31T00:02:58.032Z,62.02
2023-12-31T00:06:04.614Z,61.25
2023-12-31T00:09:11.460Z,63.22
2023-12-31T00:12:18.058Z,61.45
2023-12-31T00:15:24.718Z,61.35
2023-12-31T00:18:32.607Z,58.98
2023-12-31T00:21:44.369Z,62.34
2023-12-31T00:24:52.478Z,62.82
2023-12-31T00:27:59.148Z,61.70
2023-12-31T00:31:05.643Z,65.77
2023-12-31T00:34:13.709Z,69.94
2023-12-31T00:37:20.327Z,64.73
2023-12-31T00:40:27.057Z,66.18
2023-12-31T00:43:33.952Z,61.29
2023-12-31T00:46:40.350Z,61.28
2023-12-31T00:49:48.186Z,59.69
2023-12-31T00:52:55.107Z,60.37
2023-12-31T00:56:01.822Z,59.01
2023-12-31T00:59:09.028Z,61.10
2023-12-31T01:02:16.026Z,63.04
2023-12-31T01:05:23.849Z,67.08
2023-12-31T01:08:30.097Z,64.00
2023-12-31T01:11:36.605Z,71.49
2023-12-31T01:14:42.897Z,66.47
2023-12-31T01:17:49.129Z,64.90
2023-12-31T01:20:56.849Z,62.22
2023-12-31T01:24:04.644Z,61.67
2023-12-31T01:27:11.036Z,62.18
2023-12-31T01:30:17.650Z,62.64
2023-12-31T01:33:24.142Z,61.97
2023-12-31T01:36:32.108Z,61.05
2023-12-31T01:39:38.990Z,62.11
2023-12-31T01:42:47.219Z,65.39
2023-12-31T01:45:53.747Z,63.92
2023-12-31T01:49:00.948Z,66.18
2023-12-31T01:52:09.165Z,62.56
2023-12-31T01:55:17.065Z,62.04
2023-12-31T01:58:24.590Z,61.97
2023-12-31T02:01:32.274Z,61.52
2023-12-31T02:04:39.065Z,61.60
2023-12-31T02:07:47.145Z,60.80
2023-12-31T02:10:54.141Z,62.20
2023-12-31T02:14:00.741Z,61.27
2023-12-31T02:17:07.399Z,61.59
2023-12-31T02:20:14.248Z,62.43
2023-12-31T02:23:22.318Z,60.91
2023-12-31T02:26:31.420Z,64.60
2023-12-31T02:29:38.037Z,67.56
2023-12-31T02:32:44.689Z,63.69
2023-12-31T02:35:51.368Z,62.43
2023-12-31T02:38:57.893Z,61.40
2023-12-31T02:42:06.969Z,60.96
2023-12-31T02:45:13.481Z,64.45
2023-12-31T02:48:20.417Z,62.70
2023-12-31T02:51:27.031Z,62.98
2023-12-31T02:54:33.358Z,64.41
2023-12-31T02:57:41.510Z,67.26
2023-12-31T03:00:47.892Z,66.04
2023-12-31T03:03:54.652Z,63.93
2023-12-31T03:07:01.048Z,67.44
2023-12-31T03:10:08.952Z,66.54
2023-12-31T03:13:17.604Z,63.08
2023-12-31T03:16:26.323Z,63.47
2023-12-31T03:19:37.118Z,62.27
2023-12-31T03:22:43.362Z,62.98
2023-12-31T03:25:49.703Z,62.76
2023-12-31T03:28:57.682Z,61.67
2023-12-31T03:32:04.188Z,60.96
2023-12-31T03:35:10.679Z,63.46
2023-12-31T03:38:17.153Z,63.24
2023-12-31T03:41:23.525Z,65.62
2023-12-31T03:44:31.410Z,62.41
2023-12-31T03:47:38.259Z,63.33
2023-12-31T03:50:44.736Z,63.07
2023-12-31T03:53:51.614Z,63.61
2023-12-31T03:56:58.040Z,62.76
2023-12-31T04:00:07.323Z,63.63
2023-12-31T04:03:13.860Z,62.01
2023-12-31T04:06:20.081Z,61.35
2023-12-31T04:09:26.321Z,60.12
2023-12-31T04:12:32.743Z,60.45
2023-12-31T04:15:40.430Z,61.33
2023-12-31T04:18:47.016Z,61.34
2023-12-31T04:21:53.860Z,60.83
2023-12-31T04:25:00.482Z,62.00
2023-12-31T04:28:07.111Z,65.00
2023-12-31T04:31:15.239Z,63.82
2023-12-31T04:34:21.962Z,62.99
2023-12-31T04:37:28.517Z,62.43
2023-12-31T04:40:35.303Z,62.82
2023-12-31T04:43:41.827Z,62.92
2023-12-31T04:46:49.985Z,61.36
2023-12-31T04:49:56.755Z,62.36
2023-12-31T04:53:03.729Z,61.64
2023-12-31T04:56:20.612Z,62.61
2023-12-31T04:59:26.901Z,63.99
2023-12-31T05:02:34.846Z,63.83
2023-12-31T05:05:41.733Z,63.46
2023-12-31T05:08:48.803Z,62.40
2023-12-31T05:11:55.502Z,63.29
2023-12-31T05:15:02.122Z,62.03
2023-12-31T05:18:09.860Z,60.73
2023-12-31T05:21:16.561Z,60.57
2023-12-31T05:24:23.829Z,61.32
2023-12-31T05:27:30.111Z,61.18
2023-12-31T05:30:36.861Z,59.54
2023-12-31T05:33:45.310Z,61.56
2023-12-31T05:36:52.889Z,61.95
2023-12-31T05:39:59.319Z,66.22
2023-12-31T05:43:06.486Z,63.57
2023-12-31T05:46:13.006Z,61.33
2023-12-31T05:49:21.081Z,59.54
2023-12-31T05:52:27.867Z,64.89
2023-12-31T05:55:34.455Z,65.05
2023-12-31T05:58:43.688Z,68.73
2023-12-31T06:01:50.932Z,68.43
2023-12-31T06:04:59.219Z,66.31
2023-12-31T06:08:05.842Z,61.93
2023-12-31T06:11:12.417Z,61.65
2023-12-31T06:14:18.512Z,61.21
2023-12-31T06:17:24.849Z,60.84
2023-12-31T06:20:32.916Z,60.80
2023-12-31T06:23:39.795Z,62.02
2023-12-31T06:26:46.517Z,60.53
2023-12-31T06:29:53.705Z,60.62
2023-12-31T06:33:00.090Z,61.29
2023-12-31T06:36:09.319Z,62.92
2023-12-31T06:39:17.013Z,62.68
2023-12-31T06:45:47.885Z,67.70
2023-12-31T06:48:54.365Z,64.81
2023-12-31T06:52:02.371Z,65.90
2023-12-31T06:55:11.911Z,64.75
2023-12-31T06:58:18.636Z,63.46
2023-12-31T07:01:25.487Z,61.92
2023-12-31T07:04:32.790Z,64.49
2023-12-31T07:07:41.975Z,64.42
2023-12-31T07:10:48.796Z,63.95
2023-12-31T07:13:56.026Z,64.25
2023-12-31T07:17:03.604Z,60.04
2023-12-31T07:20:10.889Z,62.74
2023-12-31T07:23:19.226Z,61.67
2023-12-31T07:26:27.188Z,63.39
2023-12-31T07:29:34.280Z,58.45
2023-12-31T07:32:40.910Z,59.09
2023-12-31T07:35:47.350Z,64.60
2023-12-31T07:38:55.938Z,67.18
2023-12-31T07:42:02.437Z,66.65
2023-12-31T07:45:10.590Z,65.86
2023-12-31T07:48:17.260Z,63.67
2023-12-31T07:51:23.739Z,60.73
2023-12-31T07:54:31.930Z,60.99
2023-12-31T07:57:38.519Z,61.24
2023-12-31T08:00:45.050Z,58.94
2023-12-31T08:03:52.257Z,59.00
2023-12-31T08:06:58.549Z,60.81
2023-12-31T08:10:07.031Z,60.16
2023-12-31T08:13:13.731Z,60.95
2023-12-31T08:16:20.780Z,58.36
2023-12-31T08:19:27.765Z,58.39
2023-12-31T08:22:34.307Z,59.28
2023-12-31T08:25:43.101Z,59.69
2023-12-31T08:28:49.595Z,61.41
2023-12-31T08:31:57.390Z,60.51
2023-12-31T08:35:03.817Z,58.28
2023-12-31T08:38:10.238Z,58.36
2023-12-31T08:41:17.909Z,61.12
2023-12-31T08:44:24.764Z,58.98
2023-12-31T08:47:30.965Z,59.25
2023-12-31T08:50:37.520Z,57.91
2023-12-31T08:53:44.868Z,56.73
2023-12-31T08:56:52.837Z,57.31
2023-12-31T08:59:58.978Z,55.46
2023-12-31T09:03:05.890Z,55.16
2023-12-31T09:06:12.978Z,55.53
2023-12-31T09:09:19.263Z,56.90
2023-12-31T09:12:27.602Z,56.61
2023-12-31T09:15:33.931Z,57.44
2023-12-31T09:18:40.502Z,55.86
2023-12-31T09:21:47.132Z,56.07
2023-12-31T09:24:54.442Z,56.01
2023-12-31T09:28:02.102Z,55.93
2023-12-31T09:31:08.577Z,54.50
2023-12-31T09:34:15.165Z,53.64
2023-12-31T09:37:22.325Z,56.96
2023-12-31T09:40:28.895Z,57.00
2023-12-31T09:43:39.853Z,56.16
2023-12-31T09:47:06.050Z,56.49
2023-12-31T09:50:17.481Z,57.04
2023-12-31T09:53:25.808Z,55.85
2023-12-31T09:56:34.774Z,55.66
2023-12-31T09:59:43.317Z,56.97
2023-12-31T10:02:52.679Z,56.42
2023-12-31T10:05:59.739Z,56.49
2023-12-31T10:09:08.622Z,56.28
2023-12-31T10:12:15.886Z,55.57
2023-12-31T10:15:23.982Z,54.61
2023-12-31T10:18:32.324Z,52.94
2023-12-31T10:21:39.126Z,53.63
2023-12-31T10:24:46.785Z,57.44
2023-12-31T10:27:53.680Z,54.41
2023-12-31T10:31:02.220Z,55.18
2023-12-31T10:34:19.097Z,57.92
2023-12-31T10:37:25.858Z,55.15
2023-12-31T10:40:32.289Z,56.44
2023-12-31T10:43:42.223Z,56.19
2023-12-31T10:46:54.814Z,54.79
2023-12-31T10:50:02.237Z,53.77
2023-12-31T10:53:13.232Z,52.97
2023-12-31T10:56:20.328Z,54.13
2023-12-31T10:59:28.476Z,54.35
2023-12-31T11:02:36.582Z,53.15
2023-12-31T11:05:45.541Z,51.79
2023-12-31T11:08:52.236Z,50.38
2023-12-31T11:11:58.810Z,50.62
2023-12-31T11:15:10.472Z,50.12
2023-12-31T11:18:40.461Z,51.38
2023-12-31T11:22:03.836Z,49.76
2023-12-31T11:25:10.215Z,50.12
2023-12-31T11:28:18.692Z,48.90
2023-12-31T11:31:27.091Z,52.07
2023-12-31T11:34:41.096Z,48.30
2023-12-31T11:37:47.543Z,49.29
2023-12-31T11:40:56.368Z,48.38
2023-12-31T11:44:03.041Z,47.33
2023-12-31T11:47:14.812Z,46.68
2023-12-31T11:50:25.841Z,47.66
2023-12-31T11:53:50.088Z,45.72
2023-12-31T11:56:56.979Z,46.45
2023-12-31T12:00:08.067Z,44.14
2023-12-31T12:03:16.190Z,44.65
2023-12-31T12:06:25.737Z,44.26
2023-12-31T12:09:33.022Z,44.98
2023-12-31T12:12:39.656Z,44.51
2023-12-31T12:15:46.234Z,43.96
2023-12-31T12:19:00.686Z,42.87
2023-12-31T12:22:08.908Z,42.94
2023-12-31T12:25:15.465Z,43.64
2023-12-31T12:28:22.507Z,43.70
2023-12-31T12:31:36.843Z,43.59
2023-12-31T12:34:47.519Z,43.22
2023-12-31T12:37:55.826Z,43.09
2023-12-31T12:41:03.954Z,41.68
2023-12-31T12:44:11.652Z,41.84
2023-12-31T12:47:19.054Z,42.14
2023-12-31T12:50:27.659Z,44.51
2023-12-31T12:53:35.278Z,43.13
2023-12-31T12:56:42.030Z,43.20
2023-12-31T12:59:48.645Z,43.45
2023-12-31T13:02:55.251Z,43.21
2023-12-31T13:06:02.550Z,44.14
2023-12-31T13:09:12.623Z,43.49
2023-12-31T13:12:19.543Z,43.80
2023-12-31T13:15:25.835Z,43.91
2023-12-31T13:18:32.150Z,44.00
2023-12-31T13:21:39.502Z,44.99
2023-12-31T13:24:47.105Z,44.39
2023-12-31T13:27:53.706Z,44.48
2023-12-31T13:31:02.225Z,43.06
2023-12-31T13:34:10.772Z,43.30
2023-12-31T13:37:17.371Z,42.93
2023-12-31T13:40:25.459Z,43.58
2023-12-31T13:43:32.136Z,45.05
2023-12-31T13:46:38.562Z,42.45
2023-12-31T13:49:45.148Z,41.14
2023-12-31T13:52:51.823Z,44.01
2023-12-31T13:55:59.972Z,44.04
2023-12-31T13:59:06.742Z,45.30
2023-12-31T14:02:14.050Z,45.02
2023-12-31T14:05:20.374Z,45.34
2023-12-31T14:08:26.875Z,43.64
2023-12-31T14:11:34.978Z,43.52
2023-12-31T14:14:41.747Z,45.74
2023-12-31T14:17:48.362Z,45.47
2023-12-31T14:20:56.363Z,46.09
2023-12-31T14:24:03.678Z,48.82
2023-12-31T14:27:11.732Z,50.65
2023-12-31T14:30:18.552Z,48.40
2023-12-31T14:33:25.285Z,48.89
2023-12-31T14:36:33.040Z,48.45
2023-12-31T14:39:39.731Z,47.49
2023-12-31T14:42:47.938Z,46.80
2023-12-31T14:45:54.552Z,48.01
2023-12-31T14:49:04.153Z,46.95
2023-12-31T14:52:12.642Z,46.95
2023-12-31T14:55:21.063Z,47.83
2023-12-31T14:58:29.122Z,49.58
2023-12-31T15:01:35.789Z,49.74
2023-12-31T15:04:42.693Z,49.15
2023-12-31T15:07:49.499Z,52.03
2023-12-31T15:10:56.178Z,54.09
2023-12-31T15:14:05.489Z,52.35
2023-12-31T15:17:12.476Z,53.21
2023-12-31T15:20:19.070Z,51.79
2023-12-31T15:23:25.742Z,53.33
2023-12-31T15:26:33.261Z,53.35
2023-12-31T15:29:41.565Z,52.26
2023-12-31T15:32:48.333Z,54.17
2023-12-31T15:35:54.939Z,55.50
2023-12-31T15:39:01.843Z,56.12
2023-12-31T15:42:08.594Z,55.85
2023-12-31T15:45:16.720Z,55.63
2023-12-31T15:48:23.605Z,54.36
2023-12-31T15:51:30.893Z,53.27
2023-12-31T15:54:37.506Z,56.46
2023-12-31T15:57:43.852Z,54.10
2023-12-31T16:00:51.940Z,55.09
2023-12-31T16:03:58.326Z,55.79
2023-12-31T16:07:04.736Z,56.94
2023-12-31T16:10:11.939Z,55.31
2023-12-31T16:13:18.622Z,54.74
2023-12-31T16:16:26.732Z,54.58
2023-12-31T16:19:33.362Z,54.72
2023-12-31T16:22:39.857Z,54.67
2023-12-31T16:25:46.259Z,54.50
2023-12-31T16:28:53.349Z,55.70
2023-12-31T16:32:01.104Z,54.97
2023-12-31T16:35:10.711Z,54.68
2023-12-31T16:38:17.390Z,55.23
2023-12-31T16:41:25.778Z,55.98
2023-12-31T16:44:32.523Z,55.69
2023-12-31T16:47:41.598Z,53.95
2023-12-31T16:50:48.091Z,57.66
2023-12-31T16:53:59.757Z,56.26
2023-12-31T16:57:06.719Z,56.31
2023-12-31T17:00:13.927Z,56.56
2023-12-31T17:03:21.914Z,55.23
2023-12-31T17:06:29.223Z,56.48
2023-12-31T17:09:36.543Z,55.81
2023-12-31T17:12:43.221Z,57.13
2023-12-31T17:15:49.728Z,60.74
2023-12-31T17:18:57.881Z,59.22
2023-12-31T17:22:04.494Z,60.08
2023-12-31T17:25:11.458Z,58.14
2023-12-31T17:28:18.002Z,59.86
2023-12-31T17:31:24.929Z,60.25
2023-12-31T17:34:32.894Z,64.32
2023-12-31T17:37:39.729Z,62.61
2023-12-31T17:40:46.370Z,63.04
2023-12-31T17:43:53.330Z,61.18
2023-12-31T17:47:00.329Z,59.14
2023-12-31T17:50:09.394Z,60.11
2023-12-31T17:53:15.830Z,60.82
2023-12-31T17:56:22.791Z,59.46
2023-12-31T17:59:29.616Z,61.81
2023-12-31T18:02:36.097Z,60.68
2023-12-31T18:05:44.315Z,60.52
2023-12-31T18:08:50.700Z,64.13
2023-12-31T18:11:57.219Z,62.71
2023-12-31T18:15:04.002Z,67.05
2023-12-31T18:18:11.093Z,66.33
2023-12-31T18:21:19.202Z,68.33
2023-12-31T18:24:25.802Z,65.63
2023-12-31T18:27:32.231Z,64.02
2023-12-31T18:30:44.826Z,65.28
2023-12-31T18:33:54.194Z,64.31
2023-12-31T18:37:02.405Z,66.52
2023-12-31T18:40:10.400Z,65.15
2023-12-31T18:43:16.759Z,61.75
2023-12-31T18:46:25.666Z,63.71
2023-12-31T18:49:32.605Z,63.07
2023-12-31T18:52:40.503Z,63.13
2023-12-31T18:55:47.091Z,61.65
2023-12-31T18:58:53.672Z,63.24
2023-12-31T19:02:00.252Z,62.12
2023-12-31T19:05:07.152Z,64.57
2023-12-31T19:08:15.935Z,65.44
2023-12-31T19:11:23.848Z,70.33
2023-12-31T19:14:30.512Z,70.23
2023-12-31T19:17:40.034Z,73.15
2023-12-31T19:20:46.758Z,66.70
2023-12-31T19:23:54.998Z,67.62
2023-12-31T19:27:02.316Z,63.30
2023-12-31T19:30:10.717Z,66.36
2023-12-31T19:33:18.267Z,63.07
2023-12-31T19:36:24.781Z,66.26
2023-12-31T19:39:34.561Z,65.43
2023-12-31T19:42:43.528Z,63.87
2023-12-31T19:45:50.054Z,62.37
2023-12-31T19:48:56.902Z,64.74
2023-12-31T19:52:03.928Z,63.34
2023-12-31T19:55:12.457Z,62.93
2023-12-31T19:58:18.929Z,63.63
2023-12-31T20:01:25.649Z,66.00
2023-12-31T20:04:32.869Z,71.27
2023-12-31T20:07:39.525Z,69.78
2023-12-31T20:10:47.809Z,66.39
2023-12-31T20:13:54.334Z,64.73
2023-12-31T20:17:00.990Z,63.54
2023-12-31T20:20:08.495Z,62.29
2023-12-31T20:23:15.373Z,62.01
2023-12-31T20:26:23.145Z,62.58
2023-12-31T20:29:30.072Z,68.33
2023-12-31T20:32:37.278Z,65.42
2023-12-31T20:35:43.962Z,66.40
2023-12-31T20:38:50.508Z,70.23
2023-12-31T20:41:58.553Z,67.63
2023-12-31T20:45:05.590Z,69.85
2023-12-31T20:48:12.225Z,69.01
2023-12-31T20:51:20.552Z,69.99
2023-12-31T20:54:27.142Z,64.72
2023-12-31T20:57:35.072Z,65.49
2023-12-31T21:00:42.270Z,66.31
2023-12-31T21:03:48.679Z,64.83
2023-12-31T21:06:56.551Z,64.14
2023-12-31T21:10:05.927Z,64.19
2023-12-31T21:13:15.968Z,64.87
2023-12-31T21:16:22.619Z,61.49
2023-12-31T21:19:29.085Z,64.62
2023-12-31T21:22:35.924Z,65.44
2023-12-31T21:25:45.480Z,67.13
2023-12-31T21:28:56.142Z,68.43
2023-12-31T21:32:02.742Z,66.59
2023-12-31T21:35:10.096Z,64.30
2023-12-31T21:38:17.076Z,72.89
2023-12-31T21:41:26.082Z,67.72
2023-12-31T21:44:33.659Z,64.53
2023-12-31T21:47:39.948Z,61.37
2023-12-31T21:50:46.508Z,62.20
2023-12-31T21:53:52.810Z,63.00
2023-12-31T21:57:03.401Z,65.78
2023-12-31T22:00:14.336Z,67.91
2023-12-31T22:03:22.755Z,66.21
2023-12-31T22:06:29.777Z,62.63
2023-12-31T22:09:36.322Z,63.29
2023-12-31T22:12:43.241Z,67.01
2023-12-31T22:15:51.925Z,66.26
2023-12-31T22:18:58.305Z,64.09
2023-12-31T22:22:05.006Z,65.81
2023-12-31T22:25:11.477Z,63.12
2023-12-31T22:28:17.921Z,66.06
2023-12-31T22:31:25.877Z,69.84
2023-12-31T22:34:37.639Z,70.30
2023-12-31T22:37:45.145Z,64.41
2023-12-31T22:40:51.646Z,64.49
2023-12-31T22:43:58.696Z,64.79
2023-12-31T22:47:06.455Z,65.20
2023-12-31T22:50:14.087Z,62.86
2023-12-31T22:53:20.757Z,63.37
2023-12-31T22:56:27.019Z,68.23
2023-12-31T22:59:33.547Z,62.50
2023-12-31T23:02:41.891Z,64.82
2023-12-31T23:05:48.305Z,66.54
2023-12-31T23:08:54.765Z,63.22
2023-12-31T23:12:01.458Z,65.61
2023-12-31T23:15:09.830Z,68.76
2023-12-31T23:18:17.955Z,71.66
2023-12-31T23:21:24.818Z,63.83
2023-12-31T23:24:31.148Z,68.52
2023-12-31T23:27:37.510Z,63.79
2023-12-31T23:30:43.999Z,68.79
2023-12-31T23:33:51.889Z,65.06
2023-12-31T23:37:05.064Z,68.19
2023-12-31T23:40:13.977Z,64.85
2023-12-31T23:43:20.726Z,66.12
2023-12-31T23:46:27.406Z,67.85
2023-12-31T23:49:35.512Z,63.73
2023-12-31T23:52:42.156Z,63.55
2023-12-31T23:55:48.624Z,66.34
2023-12-31T23:58:54.844Z,66.25
